Time;durP1;ratioP1;P1;durP2;ratioP2;P2;SDS_P1;SDS_P2;PMS_P1;PMS_P2;Temp;Humidity;BMP_temperature;BMP_pressure;BME280_temperature;BME280_humidity;BME280_pressure;Samples;Min_cycle;Max_cycle;Signal;HPM_P1;HPM_P2
2022/08/27 00:01:49;;;;;;;4.33;4.03;;;28.20;61.20;;;;;;5051544;28;20459;-74
2022/08/27 00:04:18;;;;;;;3.93;3.73;;;28.20;61.20;;;;;;5049773;28;20487;-75
2022/08/27 00:06:46;;;;;;;3.60;3.40;;;28.20;61.20;;;;;;5045006;28;20464;-75
2022/08/27 00:09:14;;;;;;;4.27;3.90;;;28.20;61.20;;;;;;5047860;28;20492;-75
2022/08/27 00:11:52;;;;;;;3.83;3.63;;;28.20;61.20;;;;;;5039817;28;20446;-75
2022/08/27 00:14:20;;;;;;;4.50;4.20;;;28.20;61.20;;;;;;5063129;28;20514;-75
2022/08/27 00:16:49;;;;;;;4.87;4.57;;;28.20;61.20;;;;;;5054855;28;20511;-75
2022/08/27 00:19:18;;;;;;;4.20;3.90;;;28.20;61.20;;;;;;5054721;28;20509;-75
2022/08/27 00:21:47;;;;;;;3.87;3.67;;;28.20;61.20;;;;;;5055950;28;20876;-74
2022/08/27 00:24:15;;;;;;;3.77;3.57;;;28.20;61.20;;;;;;5075541;28;20840;-75
2022/08/27 00:26:44;;;;;;;4.27;3.97;;;28.20;61.20;;;;;;5074906;28;20435;-75
2022/08/27 00:29:13;;;;;;;3.40;3.20;;;28.20;61.30;;;;;;5059111;28;20815;-75
2022/08/27 00:31:42;;;;;;;4.17;3.87;;;28.20;61.20;;;;;;5054368;28;20420;-74
2022/08/27 00:34:10;;;;;;;4.10;3.80;;;28.20;61.30;;;;;;5054381;28;20503;-75
2022/08/27 00:36:40;;;;;;;4.00;3.80;;;28.20;61.30;;;;;;5054250;28;20473;-75
2022/08/27 00:39:09;;;;;;;4.03;3.73;;;28.10;61.30;;;;;;5063705;28;20449;-75
2022/08/27 00:41:38;;;;;;;4.00;3.70;;;28.10;61.30;;;;;;5055614;28;20487;-74
2022/08/27 00:44:08;;;;;;;4.10;3.90;;;28.10;61.30;;;;;;5054274;28;20638;-74
2022/08/27 00:46:43;;;;;;;4.10;3.80;;;28.10;61.30;;;;;;5050301;28;20475;-74
2022/08/27 00:49:16;;;;;;;3.63;3.43;;;28.10;61.30;;;;;;5051548;28;20982;-75
2022/08/27 00:51:49;;;;;;;3.73;3.53;;;28.10;61.30;;;;;;5057306;28;20445;-75
2022/08/27 00:54:19;;;;;;;3.87;3.63;;;28.10;61.30;;;;;;5057201;28;20922;-75
2022/08/27 00:56:48;;;;;;;3.50;3.30;;;28.10;61.40;;;;;;5044848;28;20497;-74
2022/08/27 00:59:22;;;;;;;4.10;3.80;;;28.10;61.40;;;;;;5062087;28;20487;-75
2022/08/27 01:04:40;;;;;;;4.30;4.00;;;28.10;61.40;;;;;;5062791;28;20574;-75
2022/08/27 01:07:09;;;;;;;4.10;3.80;;;28.10;61.40;;;;;;5052987;28;20555;-77
2022/08/27 01:09:39;;;;;;;4.50;4.20;;;28.10;61.40;;;;;;5055603;28;20950;-74
2022/08/27 01:12:07;;;;;;;4.87;4.53;;;28.10;61.40;;;;;;5064219;28;20491;-74
2022/08/27 01:14:36;;;;;;;4.70;4.40;;;28.10;61.40;;;;;;5044438;28;20826;-75
2022/08/27 01:17:09;;;;;;;3.67;3.47;;;28.10;61.40;;;;;;5047509;28;20479;-74
2022/08/27 01:19:42;;;;;;;4.43;4.13;;;28.10;61.40;;;;;;5066655;28;20526;-74
2022/08/27 01:22:15;;;;;;;3.83;3.63;;;28.10;61.50;;;;;;5074113;28;20483;-74
2022/08/27 01:24:54;;;;;;;3.87;3.67;;;28.10;61.50;;;;;;5058116;28;20542;-75
2022/08/27 01:27:26;;;;;;;3.63;3.40;;;28.10;61.50;;;;;;5046515;28;20451;-75
2022/08/27 01:29:55;;;;;;;3.70;3.40;;;28.10;61.50;;;;;;5054857;28;20486;-75
2022/08/27 01:32:26;;;;;;;4.10;3.80;;;28.10;61.50;;;;;;5072336;28;20547;-74
2022/08/27 01:34:55;;;;;;;4.03;3.73;;;28.10;61.50;;;;;;5052969;28;20491;-75
2022/08/27 01:37:25;;;;;;;3.53;3.33;;;28.00;61.50;;;;;;5064301;28;20527;-74
2022/08/27 01:39:56;;;;;;;4.63;4.33;;;28.00;61.50;;;;;;5073798;28;20429;-74
2022/08/27 01:42:30;;;;;;;4.07;3.77;;;28.00;61.60;;;;;;5061262;28;20480;-75
2022/08/27 01:45:01;;;;;;;3.73;3.43;;;28.00;61.60;;;;;;5053614;28;20851;-75
2022/08/27 01:47:34;;;;;;;4.57;4.27;;;28.00;61.60;;;;;;5052799;28;20428;-74
2022/08/27 01:50:04;;;;;;;4.40;4.10;;;28.00;61.60;;;;;;5068664;28;20492;-74
2022/08/27 01:52:32;;;;;;;4.13;3.83;;;28.00;61.60;;;;;;5072806;28;20469;-75
2022/08/27 01:55:02;;;;;;;4.17;3.87;;;28.00;61.60;;;;;;5034263;28;20480;-74
2022/08/27 01:57:31;;;;;;;4.00;3.73;;;28.00;61.60;;;;;;5070366;28;20548;-74
2022/08/27 01:59:59;;;;;;;4.00;3.80;;;28.00;61.60;;;;;;5061650;28;20501;-74
2022/08/27 02:02:27;;;;;;;4.60;4.30;;;28.00;61.60;;;;;;5053008;28;20541;-75
2022/08/27 02:04:56;;;;;;;4.30;4.00;;;28.00;61.60;;;;;;5052461;28;20914;-74
2022/08/27 02:07:24;;;;;;;4.20;3.90;;;28.00;61.60;;;;;;5048001;28;21001;-75
2022/08/27 02:09:52;;;;;;;4.20;4.00;;;28.00;61.60;;;;;;5049547;28;20548;-74
2022/08/27 02:12:22;;;;;;;3.63;3.43;;;28.00;61.60;;;;;;5058572;28;20488;-74
2022/08/27 02:14:50;;;;;;;4.33;4.03;;;28.00;61.60;;;;;;5033270;28;20507;-75
2022/08/27 02:17:18;;;;;;;4.00;3.80;;;28.00;61.60;;;;;;5032511;28;21020;-75
2022/08/27 02:19:46;;;;;;;4.33;4.03;;;28.00;61.60;;;;;;5042569;28;20464;-75
2022/08/27 02:22:15;;;;;;;3.90;3.70;;;28.00;61.60;;;;;;5032884;28;20435;-74
2022/08/27 02:24:44;;;;;;;3.50;3.30;;;28.00;61.60;;;;;;5033013;28;20953;-75
2022/08/27 02:27:12;;;;;;;4.50;4.20;;;28.00;61.70;;;;;;5038583;28;20471;-75
2022/08/27 02:29:42;;;;;;;4.23;3.93;;;28.00;61.70;;;;;;5052641;28;20432;-74
2022/08/27 02:32:14;;;;;;;3.90;3.60;;;28.00;61.70;;;;;;5049464;28;20420;-76
2022/08/27 02:35:00;;;;;;;4.40;4.00;;;28.00;61.70;;;;;;5032218;28;20468;-75
2022/08/27 02:37:29;;;;;;;3.87;3.57;;;28.00;61.70;;;;;;5048308;28;20550;-75
2022/08/27 02:39:57;;;;;;;4.10;3.90;;;28.00;61.70;;;;;;5052283;28;20547;-75
2022/08/27 02:42:25;;;;;;;3.77;3.57;;;28.00;61.70;;;;;;5052370;28;20462;-76
2022/08/27 02:44:55;;;;;;;3.73;3.53;;;28.00;61.70;;;;;;5052189;28;20459;-74
2022/08/27 02:47:23;;;;;;;4.07;3.77;;;28.00;61.70;;;;;;5042903;28;20555;-74
2022/08/27 02:49:51;;;;;;;4.13;3.87;;;28.00;61.70;;;;;;5048956;28;20455;-75
2022/08/27 02:52:19;;;;;;;3.70;3.50;;;28.00;61.70;;;;;;5032186;28;20480;-75
2022/08/27 02:54:52;;;;;;;4.27;3.97;;;28.00;61.70;;;;;;5032298;28;20421;-74
2022/08/27 02:57:21;;;;;;;3.90;3.63;;;27.90;61.70;;;;;;5065446;28;20473;-75
2022/08/27 02:59:49;;;;;;;4.30;4.00;;;28.00;61.70;;;;;;5035081;28;20566;-75
2022/08/27 03:02:19;;;;;;;3.60;3.40;;;27.90;61.70;;;;;;5041473;28;20480;-74
2022/08/27 03:04:49;;;;;;;3.80;3.60;;;27.90;61.70;;;;;;5044041;28;20487;-75
2022/08/27 03:07:18;;;;;;;3.70;3.50;;;28.00;61.70;;;;;;5046600;28;20477;-75
2022/08/27 03:09:46;;;;;;;3.83;3.60;;;28.00;61.70;;;;;;5052414;28;20515;-74
2022/08/27 03:12:15;;;;;;;3.70;3.50;;;28.00;61.70;;;;;;5058978;28;20489;-75
2022/08/27 03:14:44;;;;;;;4.50;4.20;;;27.90;61.70;;;;;;5072079;28;20432;-76
2022/08/27 03:20:00;;;;;;;3.67;3.47;;;27.90;61.70;;;;;;5051461;28;20984;-75
2022/08/27 03:22:29;;;;;;;4.40;4.10;;;27.90;61.80;;;;;;5070747;28;20908;-75
2022/08/27 03:24:57;;;;;;;4.07;3.77;;;27.90;61.80;;;;;;5072008;28;20444;-75
2022/08/27 03:27:25;;;;;;;3.90;3.60;;;27.90;61.80;;;;;;5072236;28;20462;-74
2022/08/27 03:29:53;;;;;;;4.23;3.93;;;27.90;61.80;;;;;;5070381;28;20529;-75
2022/08/27 03:32:21;;;;;;;6.00;4.17;;;27.90;61.80;;;;;;5071511;28;20463;-74
2022/08/27 03:34:50;;;;;;;4.03;3.83;;;27.90;61.80;;;;;;5071549;28;20889;-74
2022/08/27 03:37:19;;;;;;;4.33;4.03;;;27.90;61.80;;;;;;5059948;28;20504;-76
2022/08/27 03:39:47;;;;;;;3.50;3.30;;;27.90;61.80;;;;;;5071953;28;20465;-75
2022/08/27 03:42:16;;;;;;;3.90;3.70;;;27.90;61.80;;;;;;5057147;28;20492;-74
2022/08/27 03:44:44;;;;;;;3.70;3.50;;;27.90;61.80;;;;;;5034780;28;20431;-75
2022/08/27 03:47:12;;;;;;;4.27;4.00;;;27.90;61.80;;;;;;5035917;28;20517;-74
2022/08/27 03:49:41;;;;;;;3.80;3.53;;;27.90;61.80;;;;;;5035168;28;20488;-74
2022/08/27 03:52:09;;;;;;;4.10;3.90;;;27.90;61.80;;;;;;5035698;28;20474;-75
2022/08/27 03:54:39;;;;;;;3.93;3.73;;;27.90;61.80;;;;;;5035552;28;20512;-75
2022/08/27 03:57:07;;;;;;;3.50;3.30;;;27.90;61.80;;;;;;5035301;28;20494;-75
2022/08/27 03:59:36;;;;;;;4.43;4.03;;;27.90;61.80;;;;;;5035518;28;20501;-75
2022/08/27 04:02:05;;;;;;;4.27;3.97;;;27.90;61.80;;;;;;5049995;28;20463;-75
2022/08/27 04:04:33;;;;;;;4.40;4.10;;;27.90;61.90;;;;;;5055257;28;20497;-75
2022/08/27 04:07:01;;;;;;;4.50;4.10;;;27.90;61.90;;;;;;5054383;28;20444;-74
2022/08/27 04:09:29;;;;;;;4.40;4.10;;;27.90;61.90;;;;;;5035447;28;20836;-75
2022/08/27 04:11:59;;;;;;;3.57;3.37;;;27.90;62.00;;;;;;5035111;28;20475;-75
2022/08/27 04:14:27;;;;;;;3.70;3.50;;;27.90;62.00;;;;;;5037890;28;20947;-75
2022/08/27 04:16:56;;;;;;;3.70;3.40;;;27.90;62.00;;;;;;5061616;28;20544;-75
2022/08/27 04:19:26;;;;;;;4.07;3.80;;;27.90;62.00;;;;;;5054888;28;20478;-74
2022/08/27 04:22:00;;;;;;;4.10;3.80;;;27.90;62.00;;;;;;5055190;28;20956;-75
2022/08/27 04:24:30;;;;;;;4.33;4.03;;;27.90;62.00;;;;;;5055064;28;20423;-74
2022/08/27 04:26:59;;;;;;;4.00;3.73;;;27.90;62.00;;;;;;5055159;28;20443;-75
2022/08/27 04:29:28;;;;;;;3.27;3.13;;;27.80;62.00;;;;;;5054762;28;20456;-75
2022/08/27 04:31:56;;;;;;;3.70;3.50;;;27.90;62.00;;;;;;5067824;28;20970;-75
2022/08/27 04:34:25;;;;;;;4.50;4.20;;;27.90;62.00;;;;;;5074362;28;20771;-75
2022/08/27 04:36:55;;;;;;;4.03;3.80;;;27.90;62.00;;;;;;5057065;28;20501;-74
2022/08/27 04:39:24;;;;;;;3.47;3.27;;;27.80;62.00;;;;;;5054794;28;20471;-74
2022/08/27 04:41:54;;;;;;;3.90;3.70;;;27.80;62.00;;;;;;5054635;28;20521;-75
2022/08/27 04:44:25;;;;;;;3.93;3.73;;;27.80;62.00;;;;;;5054972;28;20729;-74
2022/08/27 04:46:56;;;;;;;3.63;3.43;;;27.80;62.00;;;;;;5054968;28;20515;-76
2022/08/27 04:49:25;;;;;;;3.90;3.60;;;27.80;62.00;;;;;;5045223;28;20482;-75
2022/08/27 04:51:53;;;;;;;3.30;3.10;;;27.90;62.00;;;;;;5054788;28;20526;-75
2022/08/27 04:54:22;;;;;;;3.30;3.10;;;27.80;62.00;;;;;;5054688;28;20833;-74
2022/08/27 04:57:00;;;;;;;3.70;3.50;;;27.90;62.00;;;;;;5053774;28;20964;-74
2022/08/27 04:59:30;;;;;;;3.93;3.63;;;27.90;62.00;;;;;;5071642;28;20523;-74
2022/08/27 05:02:00;;;;;;;3.40;3.20;;;27.90;62.00;;;;;;5060755;28;20473;-75
2022/08/27 05:04:32;;;;;;;3.83;3.63;;;27.90;62.00;;;;;;5054127;28;20850;-74
2022/08/27 05:07:01;;;;;;;4.13;3.83;;;27.90;62.00;;;;;;5054551;28;20490;-75
2022/08/27 05:09:29;;;;;;;3.30;3.10;;;27.80;62.00;;;;;;5054015;28;20909;-75
2022/08/27 05:11:57;;;;;;;3.70;3.50;;;27.80;62.00;;;;;;5054338;28;20459;-76
2022/08/27 05:14:28;;;;;;;4.30;4.00;;;27.90;62.00;;;;;;5054528;28;20511;-74
2022/08/27 05:17:00;;;;;;;3.93;3.63;;;27.80;62.00;;;;;;5066590;28;20479;-75
2022/08/27 05:19:28;;;;;;;2.80;2.70;;;27.80;62.00;;;;;;5073744;28;20514;-75
2022/08/27 05:21:56;;;;;;;3.40;3.20;;;27.80;62.00;;;;;;5074023;28;20477;-74
2022/08/27 05:24:25;;;;;;;3.47;3.27;;;27.80;62.00;;;;;;5073847;28;20961;-75
2022/08/27 05:26:53;;;;;;;4.00;3.80;;;27.80;62.00;;;;;;5056148;28;20973;-75
2022/08/27 05:29:22;;;;;;;3.50;3.30;;;27.80;62.00;;;;;;5053390;28;20476;-75
2022/08/27 05:31:50;;;;;;;4.27;3.97;;;27.80;62.00;;;;;;5053218;28;20438;-74
2022/08/27 05:34:21;;;;;;;4.20;3.90;;;27.80;62.00;;;;;;5053442;28;20478;-75
2022/08/27 05:36:53;;;;;;;3.30;3.10;;;27.80;62.00;;;;;;5050577;28;20456;-74
2022/08/27 05:39:21;;;;;;;3.47;3.27;;;27.80;62.00;;;;;;5053251;28;20459;-75
2022/08/27 05:41:51;;;;;;;3.60;3.40;;;27.80;62.00;;;;;;5034204;28;20479;-75
2022/08/27 05:44:19;;;;;;;4.03;3.83;;;27.80;62.00;;;;;;5062222;28;20437;-75
2022/08/27 05:47:07;;;;;;;3.80;3.27;;;27.90;62.00;;;;;;5072461;28;20475;-76
2022/08/27 05:49:37;;;;;;;3.60;3.40;;;27.90;62.00;;;;;;5073100;28;20431;-75
2022/08/27 05:52:09;;;;;;;3.73;3.47;;;27.90;62.00;;;;;;5073327;28;20480;-74
2022/08/27 05:54:38;;;;;;;3.90;3.70;;;27.90;62.00;;;;;;5073226;28;20431;-76
2022/08/27 05:57:06;;;;;;;3.53;3.23;;;27.90;61.90;;;;;;5058255;28;20440;-74
2022/08/27 06:02:21;;;;;;;3.70;3.40;;;27.90;61.90;;;;;;5036392;28;20477;-75
2022/08/27 06:04:50;;;;;;;3.57;3.27;;;27.90;62.00;;;;;;5052064;28;20490;-75
2022/08/27 06:07:19;;;;;;;4.57;4.27;;;27.90;62.00;;;;;;5066910;28;20956;-75
2022/08/27 06:09:47;;;;;;;3.73;3.53;;;27.90;61.90;;;;;;5052440;28;20496;-75
2022/08/27 06:12:15;;;;;;;3.40;3.20;;;27.90;62.00;;;;;;5053292;28;20914;-75
2022/08/27 06:14:43;;;;;;;3.30;3.10;;;27.90;61.90;;;;;;5053081;28;20434;-75
2022/08/27 06:17:11;;;;;;;3.73;3.53;;;27.90;61.90;;;;;;5052380;28;20570;-75
2022/08/27 06:19:41;;;;;;;3.90;3.70;;;27.90;61.90;;;;;;5050511;28;20468;-75
2022/08/27 06:22:11;;;;;;;3.23;3.03;;;27.90;61.90;;;;;;5041478;28;20444;-74
2022/08/27 06:24:40;;;;;;;3.50;3.30;;;27.90;61.90;;;;;;5052986;28;20451;-74
2022/08/27 06:27:10;;;;;;;4.20;3.90;;;27.90;61.90;;;;;;5052430;28;20877;-75
2022/08/27 06:29:39;;;;;;;3.20;3.00;;;27.90;61.90;;;;;;5071314;28;20455;-75
2022/08/27 06:32:08;;;;;;;3.33;3.13;;;27.90;61.90;;;;;;5072223;28;20468;-74
2022/08/27 06:34:37;;;;;;;3.30;3.10;;;27.90;61.90;;;;;;5051780;28;20454;-75
2022/08/27 06:37:05;;;;;;;3.00;2.80;;;27.90;61.90;;;;;;5046150;28;20449;-74
2022/08/27 06:39:36;;;;;;;3.23;3.03;;;27.90;61.90;;;;;;5032644;28;20425;-75
2022/08/27 06:42:05;;;;;;;3.83;3.63;;;27.90;61.90;;;;;;5032444;28;20430;-75
2022/08/27 06:44:34;;;;;;;4.33;4.03;;;27.90;61.80;;;;;;5032390;28;20457;-75
2022/08/27 06:47:03;;;;;;;4.00;3.73;;;27.90;61.90;;;;;;5041200;28;20474;-75
2022/08/27 06:49:32;;;;;;;3.97;3.77;;;27.90;61.80;;;;;;5039677;28;20448;-75
2022/08/27 06:52:01;;;;;;;3.70;3.50;;;27.90;61.80;;;;;;5032455;28;20437;-75
2022/08/27 06:54:29;;;;;;;3.60;3.40;;;27.90;61.80;;;;;;5046941;28;20861;-74
2022/08/27 06:57:00;;;;;;;3.40;3.20;;;27.90;61.80;;;;;;5052446;28;20511;-75
2022/08/27 06:59:28;;;;;;;3.40;3.20;;;27.90;61.70;;;;;;5052120;28;20439;-75
2022/08/27 07:01:56;;;;;;;3.60;3.40;;;27.90;61.70;;;;;;5054867;28;20478;-74
2022/08/27 07:04:25;;;;;;;3.80;3.60;;;27.90;61.70;;;;;;5051989;28;20472;-74
2022/08/27 07:07:01;;;;;;;3.90;3.60;;;27.90;61.70;;;;;;5044786;28;20540;-75
2022/08/27 07:09:31;;;;;;;3.27;3.07;;;27.90;61.70;;;;;;5046810;28;20450;-75
2022/08/27 07:12:01;;;;;;;3.63;3.43;;;27.90;61.60;;;;;;5062406;28;20521;-75
2022/08/27 07:14:30;;;;;;;3.23;3.03;;;28.00;61.60;;;;;;5032922;28;20741;-76
2022/08/27 07:17:07;;;;;;;3.50;3.30;;;28.00;61.60;;;;;;5046393;28;20461;-74
2022/08/27 07:19:43;;;;;;;3.67;3.47;;;28.00;61.60;;;;;;5077469;28;20418;-74
2022/08/27 07:22:11;;;;;;;3.60;3.40;;;28.00;61.60;;;;;;5065256;28;20536;-74
2022/08/27 07:24:40;;;;;;;3.80;3.47;;;28.00;61.60;;;;;;5038534;28;20917;-75
2022/08/27 07:27:09;;;;;;;3.97;3.67;;;28.00;61.60;;;;;;5057542;28;20538;-77
2022/08/27 07:29:38;;;;;;;3.63;3.33;;;28.00;61.60;;;;;;5059192;28;20516;-75
2022/08/27 07:32:09;;;;;;;3.00;2.80;;;28.00;61.60;;;;;;5058399;28;20489;-75
2022/08/27 07:34:37;;;;;;;3.40;3.20;;;28.00;61.50;;;;;;5061422;28;20490;-75
2022/08/27 07:37:05;;;;;;;3.60;3.40;;;28.00;61.50;;;;;;5045008;28;20445;-75
2022/08/27 07:39:33;;;;;;;3.50;3.30;;;28.00;61.60;;;;;;5038465;28;20428;-75
2022/08/27 07:44:49;;;;;;;4.00;3.80;;;28.00;61.60;;;;;;5078839;28;20500;-75
2022/08/27 07:47:17;;;;;;;3.70;3.50;;;28.00;61.60;;;;;;5078083;28;20467;-74
2022/08/27 07:49:45;;;;;;;4.00;3.70;;;28.00;61.60;;;;;;5047650;28;20456;-75
2022/08/27 07:52:16;;;;;;;3.67;3.43;;;28.00;61.50;;;;;;5045635;28;20503;-74
2022/08/27 07:54:44;;;;;;;3.27;3.07;;;28.00;61.50;;;;;;5038625;28;20424;-75
2022/08/27 07:57:13;;;;;;;3.60;3.40;;;28.00;61.60;;;;;;5040310;28;20766;-75
2022/08/27 07:59:41;;;;;;;3.17;2.97;;;28.00;61.50;;;;;;5075920;28;20837;-75
2022/08/27 08:02:11;;;;;;;3.30;3.10;;;28.00;61.50;;;;;;5056028;28;20500;-75
2022/08/27 08:04:39;;;;;;;3.87;3.57;;;28.00;61.50;;;;;;5057566;28;20822;-74
2022/08/27 08:07:08;;;;;;;3.63;3.43;;;28.00;61.50;;;;;;5057692;28;20533;-76
2022/08/27 08:09:36;;;;;;;3.70;3.50;;;28.00;61.50;;;;;;5067111;28;20495;-74
2022/08/27 08:12:05;;;;;;;3.73;3.50;;;28.00;61.50;;;;;;5075738;28;20459;-76
2022/08/27 08:14:33;;;;;;;3.70;3.50;;;28.00;61.50;;;;;;5058796;28;20505;-76
2022/08/27 08:17:02;;;;;;;3.60;3.40;;;28.00;61.50;;;;;;5057877;28;20503;-74
2022/08/27 08:19:39;;;;;;;3.90;3.67;;;28.00;61.50;;;;;;5066369;28;20455;-75
2022/08/27 08:22:07;;;;;;;3.53;3.33;;;28.00;61.50;;;;;;5058266;28;20466;-74
2022/08/27 08:24:36;;;;;;;3.50;3.30;;;28.00;61.50;;;;;;5057838;28;20415;-74
2022/08/27 08:27:04;;;;;;;4.10;3.80;;;28.00;61.50;;;;;;5058933;28;20504;-74
2022/08/27 08:29:36;;;;;;;4.90;4.60;;;28.10;61.50;;;;;;5075447;28;20432;-76
2022/08/27 08:32:05;;;;;;;3.90;3.70;;;28.10;61.50;;;;;;5052770;28;20940;-74
2022/08/27 08:34:35;;;;;;;4.27;3.97;;;28.00;61.50;;;;;;5054895;28;21141;-75
2022/08/27 08:37:06;;;;;;;4.07;3.87;;;28.00;61.50;;;;;;5054635;28;20533;-74
2022/08/27 08:39:36;;;;;;;3.53;3.33;;;28.00;61.50;;;;;;5054536;28;20431;-75
2022/08/27 08:42:06;;;;;;;3.77;3.57;;;28.00;61.50;;;;;;5049684;28;20901;-74
2022/08/27 08:44:41;;;;;;;4.40;4.10;;;28.00;61.50;;;;;;5034493;28;20509;-75
2022/08/27 08:47:14;;;;;;;4.23;4.03;;;28.00;61.50;;;;;;5034384;28;20455;-75
2022/08/27 08:49:51;;;;;;;4.07;3.77;;;28.00;61.50;;;;;;5044373;28;20545;-76
2022/08/27 08:52:28;;;;;;;4.07;3.77;;;28.00;61.60;;;;;;5049341;28;20440;-76
2022/08/27 08:55:06;;;;;;;3.90;3.60;;;28.00;61.50;;;;;;5054787;28;20852;-75
2022/08/27 08:57:40;;;;;;;4.20;3.90;;;28.00;61.60;;;;;;5047137;28;20764;-75
2022/08/27 09:00:12;;;;;;;4.30;4.10;;;28.00;61.50;;;;;;5052484;28;20440;-74
2022/08/27 09:02:45;;;;;;;4.43;4.13;;;28.00;61.50;;;;;;5045971;28;20497;-75
2022/08/27 09:05:13;;;;;;;3.93;3.67;;;28.00;61.50;;;;;;5054167;28;20470;-74
2022/08/27 09:07:50;;;;;;;4.00;3.80;;;28.00;61.50;;;;;;5038218;28;20537;-75
2022/08/27 09:10:26;;;;;;;4.17;3.97;;;28.00;61.50;;;;;;5033864;28;21014;-75
2022/08/27 09:12:59;;;;;;;3.87;3.57;;;28.00;61.60;;;;;;5034619;28;20499;-74
2022/08/27 09:15:31;;;;;;;4.57;4.27;;;28.00;61.50;;;;;;5037562;28;20452;-76
2022/08/27 09:18:07;;;;;;;3.87;3.63;;;28.00;61.50;;;;;;5070313;28;20458;-76
2022/08/27 09:20:45;;;;;;;3.50;3.30;;;28.00;61.50;;;;;;5074063;28;20420;-75
2022/08/27 09:23:24;;;;;;;4.40;4.10;;;28.00;61.50;;;;;;5053154;28;20468;-75
2022/08/27 09:25:52;;;;;;;4.30;4.00;;;28.00;61.50;;;;;;5040255;28;20521;-74
2022/08/27 09:31:09;;;;;;;4.20;3.90;;;28.10;61.40;;;;;;5040208;28;20494;-74
2022/08/27 09:33:37;;;;;;;5.37;4.90;;;28.00;61.40;;;;;;5065622;28;20992;-74
2022/08/27 09:36:23;;;;;;;4.23;3.93;;;28.00;61.40;;;;;;5052373;28;20455;-74
2022/08/27 09:39:04;;;;;;;4.63;4.33;;;28.00;61.40;;;;;;5053770;28;20805;-75
2022/08/27 09:41:40;;;;;;;4.40;4.10;;;28.00;61.50;;;;;;5053192;28;20493;-75
2022/08/27 09:44:11;;;;;;;4.27;3.97;;;28.00;61.40;;;;;;5071585;28;20459;-75
2022/08/27 09:46:39;;;;;;;4.70;4.30;;;28.00;61.40;;;;;;5069526;28;20452;-75
2022/08/27 09:49:11;;;;;;;4.60;4.30;;;28.00;61.40;;;;;;5039914;28;20463;-75
2022/08/27 09:51:42;;;;;;;4.30;4.00;;;28.00;61.50;;;;;;5046222;28;20449;-76
2022/08/27 09:54:23;;;;;;;5.40;5.00;;;28.00;61.50;;;;;;5033460;28;20454;-74
2022/08/27 09:56:51;;;;;;;4.23;4.03;;;28.00;61.50;;;;;;5042279;28;20489;-74
2022/08/27 09:59:22;;;;;;;4.17;3.87;;;28.00;61.50;;;;;;5053469;28;20458;-75
2022/08/27 10:01:54;;;;;;;4.33;4.03;;;28.00;61.50;;;;;;5046995;28;20498;-75
2022/08/27 10:04:38;;;;;;;4.83;4.53;;;28.00;61.50;;;;;;5064646;28;20530;-75
2022/08/27 10:07:35;;;;;;;4.03;3.73;;;28.00;61.50;;;;;;5042451;28;20456;-75
2022/08/27 10:10:11;;;;;;;4.37;4.07;;;28.00;61.40;;;;;;5050860;28;20458;-75
2022/08/27 10:12:51;;;;;;;4.53;4.23;;;28.00;61.40;;;;;;5053017;28;20468;-78
2022/08/27 10:15:19;;;;;;;4.00;3.80;;;28.00;61.40;;;;;;5052884;28;20439;-75
2022/08/27 10:17:58;;;;;;;4.50;4.20;;;28.00;61.40;;;;;;5052724;28;20523;-75
2022/08/27 10:20:36;;;;;;;4.50;4.20;;;28.00;61.50;;;;;;5052375;28;20487;-75
2022/08/27 10:23:19;;;;;;;4.40;4.10;;;28.00;61.50;;;;;;5052160;28;20550;-74
2022/08/27 10:25:59;;;;;;;4.40;4.10;;;28.00;61.50;;;;;;5033130;28;20448;-75
2022/08/27 10:28:44;;;;;;;4.57;4.27;;;28.00;61.50;;;;;;5050509;28;20449;-75
2022/08/27 10:31:22;;;;;;;4.20;3.90;;;28.00;61.50;;;;;;5052085;28;20852;-75
2022/08/27 10:34:03;;;;;;;5.03;4.53;;;28.00;61.50;;;;;;5054773;28;20492;-75
2022/08/27 10:36:46;;;;;;;5.10;4.80;;;28.00;61.40;;;;;;5033595;28;20459;-74
2022/08/27 10:39:27;;;;;;;5.00;4.60;;;28.00;61.40;;;;;;5082020;28;20456;-75
2022/08/27 10:42:09;;;;;;;4.13;3.93;;;28.00;61.50;;;;;;5052284;28;20484;-74
2022/08/27 10:44:50;;;;;;;3.87;3.67;;;28.00;61.50;;;;;;5057746;28;20450;-74
2022/08/27 10:47:29;;;;;;;4.93;4.63;;;28.00;61.50;;;;;;5071788;28;20434;-75
2022/08/27 10:50:05;;;;;;;4.60;4.30;;;28.00;61.50;;;;;;5039378;28;20459;-75
2022/08/27 10:52:41;;;;;;;4.83;4.53;;;28.00;61.50;;;;;;5037119;28;20490;-74
2022/08/27 10:55:19;;;;;;;5.00;4.70;;;28.00;61.40;;;;;;5055934;28;20506;-75
2022/08/27 10:58:11;;;;;;;5.33;4.93;;;28.00;61.50;;;;;;5052408;28;20464;-75
2022/08/27 11:00:45;;;;;;;4.80;4.50;;;27.90;61.50;;;;;;5048851;28;20443;-75
2022/08/27 11:03:21;;;;;;;4.60;4.30;;;27.90;61.50;;;;;;5031593;28;20494;-75
2022/08/27 11:05:50;;;;;;;4.50;4.20;;;28.00;61.50;;;;;;5040540;28;20444;-74
2022/08/27 11:08:23;;;;;;;4.80;4.50;;;28.00;61.40;;;;;;5049872;28;20472;-76
2022/08/27 11:10:55;;;;;;;5.37;5.00;;;28.00;61.50;;;;;;5032277;28;20753;-75
2022/08/27 11:13:32;;;;;;;5.30;4.90;;;27.90;61.50;;;;;;5032149;28;20521;-74
2022/08/27 11:16:05;;;;;;;4.70;4.40;;;28.00;61.50;;;;;;5040670;28;20504;-75
2022/08/27 11:18:40;;;;;;;4.40;4.10;;;28.00;61.50;;;;;;5046913;28;20449;-74
2022/08/27 11:21:14;;;;;;;5.53;5.13;;;28.00;61.50;;;;;;5031739;28;20474;-75
2022/08/27 11:23:46;;;;;;;5.50;5.00;;;28.00;61.50;;;;;;5032191;28;20871;-74
2022/08/27 11:26:14;;;;;;;4.93;4.63;;;28.00;61.40;;;;;;5032269;28;20500;-75
2022/08/27 11:28:48;;;;;;;5.47;5.07;;;28.00;61.40;;;;;;5031826;28;20444;-74
2022/08/27 11:31:22;;;;;;;5.43;5.03;;;28.00;61.50;;;;;;5032274;28;20781;-74
2022/08/27 11:34:00;;;;;;;5.17;4.87;;;28.00;61.50;;;;;;5051823;28;20436;-75
2022/08/27 11:36:56;;;;;;;5.13;4.77;;;27.90;61.50;;;;;;5051372;28;20486;-76
2022/08/27 11:39:42;;;;;;;4.47;4.17;;;27.90;61.50;;;;;;5031650;28;20505;-74
2022/08/27 11:42:18;;;;;;;5.70;5.30;;;27.90;61.60;;;;;;5031880;28;20507;-76
2022/08/27 11:44:51;;;;;;;5.90;5.50;;;27.90;61.60;;;;;;5032117;28;20437;-74
2022/08/27 11:47:22;;;;;;;5.40;5.00;;;27.90;61.60;;;;;;5045873;28;20790;-74
2022/08/27 11:49:54;;;;;;;5.10;4.70;;;27.90;61.60;;;;;;5037927;28;20513;-75
2022/08/27 11:52:26;;;;;;;4.40;4.10;;;27.90;61.60;;;;;;5031754;28;20422;-75
2022/08/27 11:55:10;;;;;;;5.30;4.90;;;27.90;61.60;;;;;;5047251;28;20440;-74
2022/08/27 11:57:39;;;;;;;5.73;5.30;;;27.90;61.60;;;;;;5071843;28;20423;-75
2022/08/27 12:00:19;;;;;;;5.57;5.10;;;27.90;61.60;;;;;;5071345;28;20506;-75
2022/08/27 12:02:57;;;;;;;6.57;6.17;;;27.90;61.60;;;;;;5057347;28;20496;-76
2022/08/27 12:05:35;;;;;;;5.40;5.00;;;27.90;61.60;;;;;;5064490;28;20450;-74
2022/08/27 12:08:26;;;;;;;5.27;4.93;;;27.90;61.50;;;;;;5055449;28;20437;-74
2022/08/27 12:11:26;;;;;;;5.73;5.23;;;27.90;61.50;;;;;;5055124;28;20515;-74
2022/08/27 12:14:01;;;;;;;5.63;5.23;;;27.90;61.50;;;;;;5062587;28;20446;-74
2022/08/27 12:16:37;;;;;;;5.47;5.07;;;27.90;61.50;;;;;;5037512;28;20476;-75
2022/08/27 12:19:37;;;;;;;5.13;4.83;;;27.90;61.50;;;;;;5048039;28;20440;-74
2022/08/27 12:22:21;;;;;;;5.40;5.00;;;27.90;61.50;;;;;;5062645;28;20455;-74
2022/08/27 12:24:52;;;;;;;4.57;4.17;;;27.90;61.50;;;;;;5060086;28;20471;-74
2022/08/27 12:27:30;;;;;;;4.20;3.90;;;27.90;61.50;;;;;;5043612;28;20441;-74
2022/08/27 12:30:01;;;;;;;5.57;5.07;;;27.90;61.50;;;;;;5054774;28;20447;-74
2022/08/27 12:32:39;;;;;;;5.60;5.20;;;28.00;61.40;;;;;;5041152;28;20455;-75
2022/08/27 12:35:14;;;;;;;5.30;4.90;;;28.00;61.40;;;;;;5060648;28;20494;-76
2022/08/27 12:37:48;;;;;;;4.83;4.53;;;28.00;61.40;;;;;;5055128;28;20411;-75
2022/08/27 12:40:23;;;;;;;5.40;5.00;;;28.00;61.40;;;;;;5054737;28;20434;-74
2022/08/27 12:43:04;;;;;;;5.10;4.70;;;28.00;61.40;;;;;;5054834;28;20430;-75
2022/08/27 12:45:32;;;;;;;4.10;3.80;;;28.00;61.40;;;;;;5054907;28;20834;-74
2022/08/27 12:48:02;;;;;;;5.47;5.07;;;28.00;61.40;;;;;;5061952;28;20915;-75
2022/08/27 12:50:31;;;;;;;5.20;4.90;;;28.00;61.30;;;;;;5050005;28;20452;-74
2022/08/27 12:53:25;;;;;;;5.07;4.70;;;28.00;61.30;;;;;;5050025;28;20538;-74
2022/08/27 12:56:24;;;;;;;5.37;4.97;;;28.00;61.30;;;;;;5054184;28;20518;-74
2022/08/27 12:59:03;;;;;;;5.13;4.80;;;28.00;61.30;;;;;;5054540;28;20482;-75
2022/08/27 13:01:48;;;;;;;5.67;5.27;;;28.00;61.30;;;;;;5049421;28;20990;-75
2022/08/27 13:04:23;;;;;;;5.57;5.23;;;28.00;61.30;;;;;;5053514;28;20529;-74
2022/08/27 13:06:52;;;;;;;4.80;4.50;;;28.00;61.30;;;;;;5053968;28;20457;-74
2022/08/27 13:09:28;;;;;;;5.60;5.20;;;28.10;61.20;;;;;;5063631;28;20489;-76
2022/08/27 13:11:58;;;;;;;5.13;4.80;;;28.00;61.30;;;;;;5074174;28;20457;-74
2022/08/27 13:14:28;;;;;;;4.47;4.17;;;28.10;61.20;;;;;;5074196;28;20420;-74
2022/08/27 13:17:00;;;;;;;4.87;4.57;;;28.10;61.20;;;;;;5073282;28;20878;-75
2022/08/27 13:19:31;;;;;;;5.40;4.90;;;28.10;61.20;;;;;;5059046;28;20537;-76
2022/08/27 13:22:01;;;;;;;5.80;5.40;;;28.00;61.20;;;;;;5053865;28;20428;-74
2022/08/27 13:24:33;;;;;;;4.60;4.30;;;28.10;61.20;;;;;;5054170;28;20665;-74
2022/08/27 13:27:03;;;;;;;5.57;5.17;;;28.10;61.20;;;;;;5052334;28;20488;-76